createdAt,value
2017-08-12T00:00:03.146Z,1014.94
2017-08-12T00:05:03.329Z,1014.88
2017-08-12T00:10:02.821Z,1014.84
2017-08-12T00:15:03.446Z,1014.76
2017-08-12T00:20:03.009Z,1014.72
2017-08-12T00:25:03.542Z,1014.7
2017-08-12T00:30:03.046Z,1014.6
2017-08-12T00:35:02.680Z,1014.69
2017-08-12T00:40:03.207Z,1014.71
2017-08-12T00:45:02.816Z,1014.56
2017-08-12T00:50:03.416Z,1014.6
2017-08-12T00:55:02.871Z,1014.48
2017-08-12T01:00:03.277Z,1014.52
2017-08-12T01:05:02.812Z,1014.4
2017-08-12T01:10:03.321Z,1014.27
2017-08-12T01:15:02.857Z,1014.22
2017-08-12T01:20:03.576Z,1014.21
2017-08-12T01:25:03.069Z,1014.25
2017-08-12T01:30:03.469Z,1014.24
2017-08-12T01:35:02.971Z,1014.24
2017-08-12T01:40:03.578Z,1014.09
2017-08-12T01:45:02.960Z,1014.07
2017-08-12T01:50:03.652Z,1014.15
2017-08-12T01:55:03.122Z,1014.09
2017-08-12T02:00:02.663Z,1014.09
2017-08-12T02:05:03.161Z,1014.03
2017-08-12T02:10:02.912Z,1013.92
2017-08-12T02:15:03.660Z,1013.9
2017-08-12T02:20:03.304Z,1013.87
2017-08-12T02:25:02.749Z,1013.8
2017-08-12T02:30:03.345Z,1013.73
2017-08-12T02:35:02.898Z,1013.73
2017-08-12T02:40:03.625Z,1013.61
2017-08-12T02:45:03.107Z,1013.58
2017-08-12T02:50:03.554Z,1013.61
2017-08-12T02:55:02.885Z,1013.5
2017-08-12T03:00:03.381Z,1013.35
2017-08-12T03:05:02.866Z,1013.47
2017-08-12T03:10:03.464Z,1013.42
2017-08-12T03:15:02.954Z,1013.45
2017-08-12T03:20:03.389Z,1013.48
2017-08-12T03:25:02.895Z,1013.47
2017-08-12T03:30:04.597Z,1013.44
2017-08-12T03:35:03.195Z,1013.37
2017-08-12T03:40:02.684Z,1013.26
2017-08-12T03:45:03.206Z,1013.34
2017-08-12T03:50:02.680Z,1013.26
2017-08-12T03:55:03.445Z,1013.29
2017-08-12T04:00:02.937Z,1013.26
2017-08-12T04:05:03.498Z,1013.35
2017-08-12T04:10:02.934Z,1013.28
2017-08-12T04:15:04.235Z,1013.3
2017-08-12T04:20:02.632Z,1013.33
2017-08-12T04:25:03.454Z,1013.27
2017-08-12T04:30:03.020Z,1013.31
2017-08-12T04:35:02.743Z,1013.29
2017-08-12T04:40:03.507Z,1013.37
2017-08-12T04:45:02.873Z,1013.31
2017-08-12T04:50:03.322Z,1013.28
2017-08-12T04:55:02.790Z,1013.34
2017-08-12T05:00:03.940Z,1013.29
2017-08-12T05:05:03.475Z,1013.31
2017-08-12T05:10:02.933Z,1013.3
2017-08-12T05:15:04.194Z,1013.29
2017-08-12T05:20:03.760Z,1013.3
2017-08-12T05:25:03.286Z,1013.24
2017-08-12T05:30:02.695Z,1013.21
2017-08-12T05:35:03.286Z,1013.22
2017-08-12T05:40:02.862Z,1013.14
2017-08-12T05:45:03.927Z,1013.2
2017-08-12T05:50:03.530Z,1013.2
2017-08-12T05:55:03.083Z,1013.23
2017-08-12T06:00:02.815Z,1013.25
2017-08-12T06:05:03.586Z,1013.18
2017-08-12T06:10:03.267Z,1013.16
2017-08-12T06:15:02.708Z,1013.2
2017-08-12T06:20:03.471Z,1013.15
2017-08-12T06:25:03.026Z,1013.2
2017-08-12T06:30:03.638Z,1013.28
2017-08-12T06:35:03.164Z,1013.25
2017-08-12T06:40:02.753Z,1013.21
2017-08-12T06:45:03.296Z,1013.28
2017-08-12T06:50:02.943Z,1013.2
2017-08-12T06:55:03.533Z,1013.17
2017-08-12T07:00:03.185Z,1013.22
2017-08-12T07:05:03.755Z,1013.12
2017-08-12T07:10:03.415Z,1013.17
2017-08-12T07:15:02.786Z,1013.22
2017-08-12T07:20:03.379Z,1013.14
2017-08-12T07:25:02.863Z,1013.17
2017-08-12T07:30:03.595Z,1013.18
2017-08-12T07:35:03.113Z,1013.22
2017-08-12T07:40:02.672Z,1013.27
2017-08-12T07:45:03.248Z,1013.16
2017-08-12T07:50:02.961Z,1013.18
2017-08-12T07:55:03.512Z,1013.21
2017-08-12T08:00:02.909Z,1013.25
2017-08-12T08:05:03.648Z,1013.27
2017-08-12T08:10:03.191Z,1013.21
2017-08-12T08:15:02.673Z,1013.27
2017-08-12T08:20:03.111Z,1013.24
2017-08-12T08:25:02.633Z,1013.26
2017-08-12T08:30:03.195Z,1013.35
2017-08-12T08:35:02.896Z,1013.32
2017-08-12T08:40:03.415Z,1013.28
2017-08-12T08:45:02.946Z,1013.34
2017-08-12T08:50:03.374Z,1013.32
2017-08-12T08:55:02.961Z,1013.45
2017-08-12T09:00:03.511Z,1013.44
2017-08-12T09:05:03.107Z,1013.57
2017-08-12T09:10:02.713Z,1013.44
2017-08-12T09:15:03.427Z,1013.46
2017-08-12T09:20:02.954Z,1013.5
2017-08-12T09:25:03.557Z,1013.46
2017-08-12T09:30:03.002Z,1013.54
2017-08-12T09:35:02.642Z,1013.53
2017-08-12T09:40:03.229Z,1013.62
2017-08-12T09:45:02.639Z,1013.62
2017-08-12T09:50:03.282Z,1013.55
2017-08-12T09:55:02.859Z,1013.74
2017-08-12T10:00:03.507Z,1013.53
2017-08-12T10:05:03.134Z,1013.65
2017-08-12T10:10:02.717Z,1013.75
2017-08-12T10:15:03.261Z,1013.74
2017-08-12T10:20:02.855Z,1013.73
2017-08-12T10:25:03.433Z,1013.7
2017-08-12T10:30:02.980Z,1013.7
2017-08-12T10:35:03.524Z,1013.6
2017-08-12T10:40:03.215Z,1013.71
2017-08-12T10:45:02.644Z,1013.76
2017-08-12T10:50:03.186Z,1013.71
2017-08-12T10:55:03.641Z,1013.72
2017-08-12T11:00:03.035Z,1013.7
2017-08-12T11:05:03.793Z,1013.73
2017-08-12T11:10:03.283Z,1013.78
2017-08-12T11:15:03.834Z,1013.76
2017-08-12T11:20:03.445Z,1013.79
2017-08-12T11:25:03.009Z,1013.77
2017-08-12T11:30:03.549Z,1013.82
2017-08-12T11:35:03.038Z,1013.75
2017-08-12T11:40:03.663Z,1013.89
2017-08-12T11:45:03.184Z,1013.84
2017-08-12T11:50:02.868Z,1013.86
2017-08-12T11:55:03.240Z,1013.8
2017-08-12T12:00:02.810Z,1013.88
2017-08-12T12:05:03.422Z,1013.85
2017-08-12T12:10:02.978Z,1013.88
2017-08-12T12:15:03.529Z,1013.94
2017-08-12T12:20:03.035Z,1013.83
2017-08-12T12:25:02.959Z,1013.79
2017-08-12T12:30:03.398Z,1014
2017-08-12T12:35:03.003Z,1013.85
2017-08-12T12:40:03.490Z,1013.94
2017-08-12T12:45:02.927Z,1014.02
2017-08-12T12:50:03.402Z,1014.1
2017-08-12T12:55:02.948Z,1014.04
2017-08-12T13:00:03.339Z,1013.99
2017-08-12T13:05:02.839Z,1013.92
2017-08-12T13:10:03.402Z,1014
2017-08-12T13:15:02.841Z,1014.02
2017-08-12T13:20:03.268Z,1014.02
2017-08-12T13:25:02.836Z,1014.01
2017-08-12T13:30:03.422Z,1014.1
2017-08-12T13:35:03.210Z,1014
2017-08-12T13:40:02.637Z,1014.11
2017-08-12T13:45:03.108Z,1014.11
2017-08-12T13:50:03.608Z,1014.11
2017-08-12T13:55:03.011Z,1014.1
2017-08-12T14:00:03.630Z,1014.09
2017-08-12T14:05:03.275Z,1013.99
2017-08-12T14:10:02.911Z,1013.99
2017-08-12T14:15:03.370Z,1013.98
2017-08-12T14:20:02.847Z,1013.94
2017-08-12T14:25:03.371Z,1013.97
2017-08-12T14:30:02.863Z,1013.91
2017-08-12T14:35:03.483Z,1014.07
2017-08-12T14:40:03.077Z,1014.05
2017-08-12T14:45:03.621Z,1013.99
2017-08-12T14:50:03.063Z,1014.07
2017-08-12T14:54:05.108Z,1014.13
2017-08-12T14:55:03.645Z,1014.13
2017-08-12T15:00:03.193Z,1014.08
2017-08-12T15:05:02.658Z,1013.97
2017-08-12T15:10:03.171Z,1014.07
2017-08-12T15:15:02.674Z,1014.07
2017-08-12T15:20:03.390Z,1014.02
2017-08-12T15:25:02.824Z,1014
2017-08-12T15:35:02.964Z,1013.99
2017-08-12T15:40:03.587Z,1014.02
2017-08-12T15:45:02.974Z,1013.97
2017-08-12T15:50:03.544Z,1014.01
2017-08-12T15:55:03.168Z,1013.94
2017-08-12T16:00:02.680Z,1014.18
2017-08-12T16:05:03.150Z,1013.99
2017-08-12T16:10:02.732Z,1014.29
2017-08-12T16:15:03.268Z,1014.11
2017-08-12T16:20:02.695Z,1014.37
2017-08-12T16:25:03.147Z,1014.23
2017-08-12T16:30:02.783Z,1014.19
2017-08-12T16:35:03.385Z,1014.32
2017-08-12T16:40:02.982Z,1014.32
2017-08-12T16:45:03.417Z,1014.39
2017-08-12T16:50:02.845Z,1014.29
2017-08-12T16:55:03.504Z,1014.26
2017-08-12T17:00:02.934Z,1014.25
2017-08-12T17:05:03.585Z,1014.24
2017-08-12T17:10:03.235Z,1014.25
2017-08-12T17:15:02.664Z,1014.32
2017-08-12T17:20:03.365Z,1014.34
2017-08-12T17:25:02.931Z,1014.39
2017-08-12T17:30:03.687Z,1014.43
2017-08-12T17:35:03.325Z,1014.47
2017-08-12T17:40:02.796Z,1014.49
2017-08-12T17:45:03.485Z,1014.53
2017-08-12T17:50:02.882Z,1014.53
2017-08-12T17:55:03.448Z,1014.56
2017-08-12T18:00:03.033Z,1014.58
2017-08-12T18:05:03.641Z,1014.67
2017-08-12T18:10:03.243Z,1014.69
2017-08-12T18:15:02.806Z,1014.68
2017-08-12T18:20:03.411Z,1014.68
2017-08-12T18:25:02.851Z,1014.69
2017-08-12T18:30:03.560Z,1014.79
2017-08-12T18:35:03.119Z,1014.87
2017-08-12T18:40:02.669Z,1014.88
2017-08-12T18:45:03.424Z,1014.96
2017-08-12T18:50:02.871Z,1014.92
2017-08-12T18:55:03.313Z,1014.97
2017-08-12T19:00:02.789Z,1015.05
2017-08-12T19:05:03.416Z,1015.06
2017-08-12T19:10:02.978Z,1015.09
2017-08-12T19:15:03.390Z,1015.04
2017-08-12T19:20:02.856Z,1015.09
2017-08-12T19:25:03.428Z,1015.23
2017-08-12T19:30:02.959Z,1015.3
2017-08-12T19:35:03.667Z,1015.37
2017-08-12T19:40:03.496Z,1015.47
2017-08-12T19:45:02.997Z,1015.5
2017-08-12T19:55:03.397Z,1015.61
2017-08-12T20:00:02.778Z,1015.85
2017-08-12T20:05:03.412Z,1015.81
2017-08-12T20:10:03.004Z,1016.03
2017-08-12T20:15:03.570Z,1016.1
2017-08-12T20:20:03.225Z,1016.08
2017-08-12T20:25:02.819Z,1016.05
2017-08-12T20:30:03.431Z,1016.17
2017-08-12T20:35:03.020Z,1016.17
2017-08-12T20:45:03.478Z,1016.21
2017-08-12T20:50:02.876Z,1016.25
2017-08-12T20:55:03.304Z,1016.28
2017-08-12T21:00:03.020Z,1016.29
2017-08-12T21:05:03.660Z,1016.3
2017-08-12T21:10:03.294Z,1016.29
2017-08-12T21:15:02.731Z,1016.25
2017-08-12T21:20:03.326Z,1016.25
2017-08-12T21:25:02.724Z,1016.26
2017-08-12T21:30:03.583Z,1016.29
2017-08-12T21:35:03.076Z,1016.32
2017-08-12T21:40:03.587Z,1016.36
2017-08-12T21:45:03.088Z,1016.35
2017-08-12T21:50:03.624Z,1016.34
2017-08-12T21:55:02.993Z,1016.31
2017-08-12T22:00:03.607Z,1016.39
2017-08-12T22:05:03.027Z,1016.49
2017-08-12T22:10:02.752Z,1016.53
2017-08-12T22:15:03.156Z,1016.53
2017-08-12T22:20:02.870Z,1016.47
2017-08-12T22:25:03.427Z,1016.58
2017-08-12T22:30:02.835Z,1016.64
2017-08-12T22:35:03.375Z,1016.52
2017-08-12T22:40:02.988Z,1016.55
2017-08-12T22:45:03.603Z,1016.62
2017-08-12T22:50:03.006Z,1016.64
2017-08-12T22:55:02.646Z,1016.69
2017-08-12T23:00:03.501Z,1016.68
2017-08-12T23:05:02.760Z,1016.77
2017-08-12T23:10:03.499Z,1016.77
2017-08-12T23:15:02.944Z,1016.82
2017-08-12T23:20:03.554Z,1016.79
2017-08-12T23:25:03.013Z,1016.83
2017-08-12T23:30:03.430Z,1016.77
2017-08-12T23:35:02.978Z,1016.75
2017-08-12T23:40:03.698Z,1016.78
2017-08-12T23:45:03.280Z,1016.72
2017-08-12T23:50:02.666Z,1016.73
2017-08-12T23:55:03.124Z,1016.78
